sensor_id;sensor_type;location;lat;lon;timestamp;P1;durP1;ratioP1;P2;durP2;ratioP2
8213;SDS011;4148;47.974;7.824;2022-07-10T00:02:17;5.57;;;4.03;;
8213;SDS011;4148;47.974;7.824;2022-07-10T00:04:45;6.50;;;4.00;;
8213;SDS011;4148;47.974;7.824;2022-07-10T00:07:13;5.50;;;4.20;;
8213;SDS011;4148;47.974;7.824;2022-07-10T00:09:41;4.40;;;4.00;;
8213;SDS011;4148;47.974;7.824;2022-07-10T00:12:10;5.30;;;4.60;;
8213;SDS011;4148;47.974;7.824;2022-07-10T00:14:38;5.60;;;4.50;;
8213;SDS011;4148;47.974;7.824;2022-07-10T00:17:06;5.23;;;4.67;;
8213;SDS011;4148;47.974;7.824;2022-07-10T00:19:34;6.53;;;4.83;;
8213;SDS011;4148;47.974;7.824;2022-07-10T00:22:02;5.40;;;4.80;;
8213;SDS011;4148;47.974;7.824;2022-07-10T00:24:30;8.70;;;5.20;;
8213;SDS011;4148;47.974;7.824;2022-07-10T00:26:59;5.97;;;5.47;;
8213;SDS011;4148;47.974;7.824;2022-07-10T00:29:28;5.73;;;5.20;;
8213;SDS011;4148;47.974;7.824;2022-07-10T00:31:56;6.63;;;5.50;;
8213;SDS011;4148;47.974;7.824;2022-07-10T00:34:23;4.97;;;4.43;;
8213;SDS011;4148;47.974;7.824;2022-07-10T00:36:51;6.27;;;5.67;;
8213;SDS011;4148;47.974;7.824;2022-07-10T00:39:19;6.37;;;5.40;;
8213;SDS011;4148;47.974;7.824;2022-07-10T00:41:47;5.60;;;5.10;;
8213;SDS011;4148;47.974;7.824;2022-07-10T00:44:15;6.00;;;5.40;;
8213;SDS011;4148;47.974;7.824;2022-07-10T00:46:44;5.13;;;4.73;;
8213;SDS011;4148;47.974;7.824;2022-07-10T00:49:12;5.87;;;5.37;;
8213;SDS011;4148;47.974;7.824;2022-07-10T00:51:40;5.47;;;4.97;;
8213;SDS011;4148;47.974;7.824;2022-07-10T00:54:08;4.90;;;4.40;;
8213;SDS011;4148;47.974;7.824;2022-07-10T00:56:36;5.60;;;5.00;;
8213;SDS011;4148;47.974;7.824;2022-07-10T00:59:04;8.23;;;4.97;;
8213;SDS011;4148;47.974;7.824;2022-07-10T01:01:32;5.50;;;4.53;;
8213;SDS011;4148;47.974;7.824;2022-07-10T01:04:01;4.97;;;4.57;;
8213;SDS011;4148;47.974;7.824;2022-07-10T01:06:29;7.00;;;5.37;;
8213;SDS011;4148;47.974;7.824;2022-07-10T01:08:57;6.17;;;4.73;;
8213;SDS011;4148;47.974;7.824;2022-07-10T01:11:25;5.50;;;5.10;;
8213;SDS011;4148;47.974;7.824;2022-07-10T01:13:53;5.20;;;4.50;;
8213;SDS011;4148;47.974;7.824;2022-07-10T01:16:21;5.20;;;4.10;;
8213;SDS011;4148;47.974;7.824;2022-07-10T01:18:49;5.90;;;4.87;;
8213;SDS011;4148;47.974;7.824;2022-07-10T01:21:25;4.80;;;4.27;;
8213;SDS011;4148;47.974;7.824;2022-07-10T01:23:54;7.87;;;4.67;;
8213;SDS011;4148;47.974;7.824;2022-07-10T01:26:23;5.37;;;4.63;;
8213;SDS011;4148;47.974;7.824;2022-07-10T01:28:52;5.20;;;4.70;;
8213;SDS011;4148;47.974;7.824;2022-07-10T01:31:23;5.13;;;4.73;;
8213;SDS011;4148;47.974;7.824;2022-07-10T01:33:52;5.43;;;4.93;;
8213;SDS011;4148;47.974;7.824;2022-07-10T01:36:20;5.57;;;4.70;;
8213;SDS011;4148;47.974;7.824;2022-07-10T01:38:52;5.00;;;4.53;;
8213;SDS011;4148;47.974;7.824;2022-07-10T01:41:20;5.10;;;4.60;;
8213;SDS011;4148;47.974;7.824;2022-07-10T01:43:48;11.27;;;4.63;;
8213;SDS011;4148;47.974;7.824;2022-07-10T01:46:16;5.97;;;5.37;;
8213;SDS011;4148;47.974;7.824;2022-07-10T01:48:44;4.73;;;4.33;;
8213;SDS011;4148;47.974;7.824;2022-07-10T01:51:12;7.27;;;5.00;;
8213;SDS011;4148;47.974;7.824;2022-07-10T01:53:40;4.80;;;4.40;;
8213;SDS011;4148;47.974;7.824;2022-07-10T01:56:11;5.73;;;5.23;;
8213;SDS011;4148;47.974;7.824;2022-07-10T01:58:40;6.97;;;4.50;;
8213;SDS011;4148;47.974;7.824;2022-07-10T02:01:08;5.77;;;4.30;;
8213;SDS011;4148;47.974;7.824;2022-07-10T02:03:37;6.87;;;5.10;;
8213;SDS011;4148;47.974;7.824;2022-07-10T02:06:22;6.43;;;5.40;;
8213;SDS011;4148;47.974;7.824;2022-07-10T02:08:50;5.53;;;5.00;;
8213;SDS011;4148;47.974;7.824;2022-07-10T02:11:19;4.90;;;4.50;;
8213;SDS011;4148;47.974;7.824;2022-07-10T02:13:47;5.83;;;5.10;;
8213;SDS011;4148;47.974;7.824;2022-07-10T02:16:15;5.70;;;5.20;;
8213;SDS011;4148;47.974;7.824;2022-07-10T02:18:43;6.60;;;4.90;;
8213;SDS011;4148;47.974;7.824;2022-07-10T02:21:11;5.60;;;5.00;;
8213;SDS011;4148;47.974;7.824;2022-07-10T02:23:39;6.10;;;5.53;;
8213;SDS011;4148;47.974;7.824;2022-07-10T02:26:07;5.53;;;5.03;;
8213;SDS011;4148;47.974;7.824;2022-07-10T02:28:36;7.00;;;5.07;;
8213;SDS011;4148;47.974;7.824;2022-07-10T02:31:05;5.17;;;4.77;;
8213;SDS011;4148;47.974;7.824;2022-07-10T02:33:33;5.07;;;4.67;;
8213;SDS011;4148;47.974;7.824;2022-07-10T02:36:03;5.20;;;4.60;;
8213;SDS011;4148;47.974;7.824;2022-07-10T02:38:31;4.70;;;4.30;;
8213;SDS011;4148;47.974;7.824;2022-07-10T02:40:59;4.80;;;4.33;;
8213;SDS011;4148;47.974;7.824;2022-07-10T02:43:27;6.20;;;5.00;;
8213;SDS011;4148;47.974;7.824;2022-07-10T02:45:56;6.20;;;5.03;;
8213;SDS011;4148;47.974;7.824;2022-07-10T02:48:24;5.53;;;5.03;;
8213;SDS011;4148;47.974;7.824;2022-07-10T02:50:52;5.60;;;5.03;;
8213;SDS011;4148;47.974;7.824;2022-07-10T02:53:20;6.40;;;5.20;;
8213;SDS011;4148;47.974;7.824;2022-07-10T02:55:47;6.43;;;5.17;;
8213;SDS011;4148;47.974;7.824;2022-07-10T02:58:15;5.67;;;5.00;;
8213;SDS011;4148;47.974;7.824;2022-07-10T03:00:44;5.17;;;4.70;;
8213;SDS011;4148;47.974;7.824;2022-07-10T03:03:13;5.73;;;5.00;;
8213;SDS011;4148;47.974;7.824;2022-07-10T03:05:43;5.47;;;4.97;;
8213;SDS011;4148;47.974;7.824;2022-07-10T03:08:11;5.53;;;4.90;;
8213;SDS011;4148;47.974;7.824;2022-07-10T03:10:39;5.97;;;4.57;;
8213;SDS011;4148;47.974;7.824;2022-07-10T03:13:07;5.90;;;5.40;;
8213;SDS011;4148;47.974;7.824;2022-07-10T03:15:35;5.30;;;4.90;;
8213;SDS011;4148;47.974;7.824;2022-07-10T03:18:03;19.07;;;5.00;;
8213;SDS011;4148;47.974;7.824;2022-07-10T03:20:33;5.00;;;4.60;;
8213;SDS011;4148;47.974;7.824;2022-07-10T03:23:01;7.17;;;5.30;;
8213;SDS011;4148;47.974;7.824;2022-07-10T03:25:29;5.63;;;5.10;;
8213;SDS011;4148;47.974;7.824;2022-07-10T03:27:57;5.83;;;5.33;;
8213;SDS011;4148;47.974;7.824;2022-07-10T03:30:25;7.87;;;4.50;;
8213;SDS011;4148;47.974;7.824;2022-07-10T03:32:52;5.90;;;5.30;;
8213;SDS011;4148;47.974;7.824;2022-07-10T03:35:20;5.83;;;5.00;;
8213;SDS011;4148;47.974;7.824;2022-07-10T03:37:49;5.70;;;5.20;;
8213;SDS011;4148;47.974;7.824;2022-07-10T03:40:17;5.73;;;5.20;;
8213;SDS011;4148;47.974;7.824;2022-07-10T03:42:46;6.10;;;5.40;;
8213;SDS011;4148;47.974;7.824;2022-07-10T03:45:14;6.43;;;4.90;;
8213;SDS011;4148;47.974;7.824;2022-07-10T03:47:42;6.73;;;5.40;;
8213;SDS011;4148;47.974;7.824;2022-07-10T03:50:10;6.50;;;4.90;;
8213;SDS011;4148;47.974;7.824;2022-07-10T03:52:38;6.00;;;4.97;;
8213;SDS011;4148;47.974;7.824;2022-07-10T03:55:08;6.00;;;5.40;;
8213;SDS011;4148;47.974;7.824;2022-07-10T03:57:36;5.73;;;4.80;;
8213;SDS011;4148;47.974;7.824;2022-07-10T04:00:23;5.50;;;4.90;;
8213;SDS011;4148;47.974;7.824;2022-07-10T04:02:55;5.33;;;4.83;;
8213;SDS011;4148;47.974;7.824;2022-07-10T04:05:24;5.77;;;4.83;;
8213;SDS011;4148;47.974;7.824;2022-07-10T04:07:52;7.07;;;4.63;;
8213;SDS011;4148;47.974;7.824;2022-07-10T04:10:22;7.20;;;4.97;;
8213;SDS011;4148;47.974;7.824;2022-07-10T04:12:50;7.97;;;5.70;;
8213;SDS011;4148;47.974;7.824;2022-07-10T04:15:18;6.20;;;5.60;;
8213;SDS011;4148;47.974;7.824;2022-07-10T04:17:47;8.63;;;5.20;;
8213;SDS011;4148;47.974;7.824;2022-07-10T04:20:15;6.00;;;5.50;;
8213;SDS011;4148;47.974;7.824;2022-07-10T04:22:44;6.80;;;5.67;;
8213;SDS011;4148;47.974;7.824;2022-07-10T04:25:12;5.60;;;5.10;;
8213;SDS011;4148;47.974;7.824;2022-07-10T04:27:41;6.00;;;5.40;;
8213;SDS011;4148;47.974;7.824;2022-07-10T04:30:09;5.83;;;5.27;;
8213;SDS011;4148;47.974;7.824;2022-07-10T04:32:38;7.73;;;5.73;;
8213;SDS011;4148;47.974;7.824;2022-07-10T04:35:06;5.70;;;5.20;;
8213;SDS011;4148;47.974;7.824;2022-07-10T04:37:34;6.20;;;5.60;;
8213;SDS011;4148;47.974;7.824;2022-07-10T04:40:03;7.20;;;5.50;;
8213;SDS011;4148;47.974;7.824;2022-07-10T04:42:31;6.10;;;5.43;;
8213;SDS011;4148;47.974;7.824;2022-07-10T04:45:01;6.27;;;5.67;;
8213;SDS011;4148;47.974;7.824;2022-07-10T04:47:29;7.10;;;5.50;;
8213;SDS011;4148;47.974;7.824;2022-07-10T04:49:57;7.10;;;4.97;;
8213;SDS011;4148;47.974;7.824;2022-07-10T04:52:25;5.63;;;5.13;;
8213;SDS011;4148;47.974;7.824;2022-07-10T04:54:53;6.20;;;5.60;;
8213;SDS011;4148;47.974;7.824;2022-07-10T04:57:21;7.30;;;5.53;;
8213;SDS011;4148;47.974;7.824;2022-07-10T04:59:49;6.63;;;5.60;;
8213;SDS011;4148;47.974;7.824;2022-07-10T05:02:18;7.30;;;5.90;;
8213;SDS011;4148;47.974;7.824;2022-07-10T05:04:46;6.30;;;5.70;;
8213;SDS011;4148;47.974;7.824;2022-07-10T05:07:14;6.40;;;5.30;;
8213;SDS011;4148;47.974;7.824;2022-07-10T05:09:42;10.33;;;5.97;;
8213;SDS011;4148;47.974;7.824;2022-07-10T05:12:10;5.70;;;5.20;;
8213;SDS011;4148;47.974;7.824;2022-07-10T05:14:38;6.23;;;5.63;;
8213;SDS011;4148;47.974;7.824;2022-07-10T05:17:05;5.73;;;5.23;;
8213;SDS011;4148;47.974;7.824;2022-07-10T05:19:35;6.50;;;5.77;;
8213;SDS011;4148;47.974;7.824;2022-07-10T05:22:03;5.90;;;5.40;;
8213;SDS011;4148;47.974;7.824;2022-07-10T05:24:31;6.07;;;5.50;;
8213;SDS011;4148;47.974;7.824;2022-07-10T05:26:59;6.80;;;6.20;;
8213;SDS011;4148;47.974;7.824;2022-07-10T05:29:27;6.27;;;5.50;;
8213;SDS011;4148;47.974;7.824;2022-07-10T05:31:55;7.70;;;6.97;;
8213;SDS011;4148;47.974;7.824;2022-07-10T05:34:22;6.97;;;6.30;;
8213;SDS011;4148;47.974;7.824;2022-07-10T05:36:52;6.30;;;5.80;;
8213;SDS011;4148;47.974;7.824;2022-07-10T05:39:19;8.20;;;6.60;;
8213;SDS011;4148;47.974;7.824;2022-07-10T05:41:48;5.97;;;5.47;;
8213;SDS011;4148;47.974;7.824;2022-07-10T05:44:16;6.57;;;5.97;;
8213;SDS011;4148;47.974;7.824;2022-07-10T05:46:45;5.30;;;4.73;;
8213;SDS011;4148;47.974;7.824;2022-07-10T05:49:13;6.07;;;4.90;;
8213;SDS011;4148;47.974;7.824;2022-07-10T05:51:42;4.70;;;4.30;;
8213;SDS011;4148;47.974;7.824;2022-07-10T05:54:12;4.57;;;3.77;;
8213;SDS011;4148;47.974;7.824;2022-07-10T05:56:40;5.30;;;4.10;;
8213;SDS011;4148;47.974;7.824;2022-07-10T05:59:08;4.13;;;3.80;;
8213;SDS011;4148;47.974;7.824;2022-07-10T06:01:36;5.20;;;4.17;;
8213;SDS011;4148;47.974;7.824;2022-07-10T06:04:04;6.87;;;4.20;;
8213;SDS011;4148;47.974;7.824;2022-07-10T06:06:32;4.83;;;3.90;;
8213;SDS011;4148;47.974;7.824;2022-07-10T06:09:00;7.20;;;4.03;;
8213;SDS011;4148;47.974;7.824;2022-07-10T06:11:29;5.50;;;4.10;;
8213;SDS011;4148;47.974;7.824;2022-07-10T06:13:57;5.17;;;3.67;;
8213;SDS011;4148;47.974;7.824;2022-07-10T06:16:25;5.00;;;3.63;;
8213;SDS011;4148;47.974;7.824;2022-07-10T06:18:53;5.70;;;4.00;;
8213;SDS011;4148;47.974;7.824;2022-07-10T06:21:21;6.43;;;3.83;;
8213;SDS011;4148;47.974;7.824;2022-07-10T06:23:49;6.40;;;3.40;;
8213;SDS011;4148;47.974;7.824;2022-07-10T06:26:17;4.40;;;3.77;;
8213;SDS011;4148;47.974;7.824;2022-07-10T06:28:47;8.23;;;3.53;;
8213;SDS011;4148;47.974;7.824;2022-07-10T06:31:15;7.20;;;3.93;;
8213;SDS011;4148;47.974;7.824;2022-07-10T06:33:43;5.37;;;3.67;;
8213;SDS011;4148;47.974;7.824;2022-07-10T06:36:11;8.13;;;4.50;;
8213;SDS011;4148;47.974;7.824;2022-07-10T06:38:39;4.00;;;3.60;;
8213;SDS011;4148;47.974;7.824;2022-07-10T06:41:08;4.77;;;3.30;;
8213;SDS011;4148;47.974;7.824;2022-07-10T06:43:37;5.60;;;3.40;;
8213;SDS011;4148;47.974;7.824;2022-07-10T06:46:06;5.63;;;3.37;;
8213;SDS011;4148;47.974;7.824;2022-07-10T06:48:34;4.20;;;3.53;;
8213;SDS011;4148;47.974;7.824;2022-07-10T06:51:06;5.40;;;3.30;;
8213;SDS011;4148;47.974;7.824;2022-07-10T06:53:39;4.20;;;3.50;;
8213;SDS011;4148;47.974;7.824;2022-07-10T06:56:07;5.97;;;3.70;;
8213;SDS011;4148;47.974;7.824;2022-07-10T06:58:35;6.67;;;3.47;;
8213;SDS011;4148;47.974;7.824;2022-07-10T07:01:04;3.47;;;3.10;;
8213;SDS011;4148;47.974;7.824;2022-07-10T07:03:33;4.90;;;4.00;;
8213;SDS011;4148;47.974;7.824;2022-07-10T07:06:01;6.00;;;3.77;;
8213;SDS011;4148;47.974;7.824;2022-07-10T07:08:29;7.47;;;4.00;;
8213;SDS011;4148;47.974;7.824;2022-07-10T07:10:57;5.37;;;3.70;;
8213;SDS011;4148;47.974;7.824;2022-07-10T07:13:25;6.30;;;3.87;;
8213;SDS011;4148;47.974;7.824;2022-07-10T07:15:53;6.07;;;4.10;;
8213;SDS011;4148;47.974;7.824;2022-07-10T07:18:25;5.30;;;4.20;;
8213;SDS011;4148;47.974;7.824;2022-07-10T07:21:00;3.63;;;3.30;;
8213;SDS011;4148;47.974;7.824;2022-07-10T07:23:51;9.27;;;4.30;;
8213;SDS011;4148;47.974;7.824;2022-07-10T07:26:19;5.37;;;3.70;;
8213;SDS011;4148;47.974;7.824;2022-07-10T07:28:47;5.40;;;4.23;;
8213;SDS011;4148;47.974;7.824;2022-07-10T07:31:15;4.13;;;3.73;;
8213;SDS011;4148;47.974;7.824;2022-07-10T07:33:44;6.10;;;4.00;;
8213;SDS011;4148;47.974;7.824;2022-07-10T07:36:13;8.30;;;4.17;;
8213;SDS011;4148;47.974;7.824;2022-07-10T07:38:41;7.10;;;4.47;;
8213;SDS011;4148;47.974;7.824;2022-07-10T07:41:09;7.80;;;3.63;;
8213;SDS011;4148;47.974;7.824;2022-07-10T07:43:37;3.93;;;3.50;;
8213;SDS011;4148;47.974;7.824;2022-07-10T07:46:05;3.57;;;3.23;;
8213;SDS011;4148;47.974;7.824;2022-07-10T07:48:33;5.10;;;3.40;;
8213;SDS011;4148;47.974;7.824;2022-07-10T07:51:01;3.47;;;2.90;;
8213;SDS011;4148;47.974;7.824;2022-07-10T07:53:30;3.90;;;3.47;;
8213;SDS011;4148;47.974;7.824;2022-07-10T07:55:58;4.43;;;3.60;;
8213;SDS011;4148;47.974;7.824;2022-07-10T07:58:27;4.10;;;3.20;;
8213;SDS011;4148;47.974;7.824;2022-07-10T08:00:55;7.50;;;3.60;;
8213;SDS011;4148;47.974;7.824;2022-07-10T08:03:23;5.73;;;3.47;;
8213;SDS011;4148;47.974;7.824;2022-07-10T08:06:11;5.23;;;3.03;;
8213;SDS011;4148;47.974;7.824;2022-07-10T08:08:40;4.10;;;3.10;;
8213;SDS011;4148;47.974;7.824;2022-07-10T08:11:08;4.90;;;3.13;;
8213;SDS011;4148;47.974;7.824;2022-07-10T08:13:36;5.63;;;2.93;;
8213;SDS011;4148;47.974;7.824;2022-07-10T08:16:04;4.83;;;3.27;;
8213;SDS011;4148;47.974;7.824;2022-07-10T08:18:34;4.23;;;3.03;;
8213;SDS011;4148;47.974;7.824;2022-07-10T08:21:03;3.63;;;3.13;;
8213;SDS011;4148;47.974;7.824;2022-07-10T08:23:31;4.50;;;3.10;;
8213;SDS011;4148;47.974;7.824;2022-07-10T08:26:00;3.53;;;2.73;;
8213;SDS011;4148;47.974;7.824;2022-07-10T08:28:28;5.47;;;3.33;;
8213;SDS011;4148;47.974;7.824;2022-07-10T08:30:56;5.40;;;3.53;;
8213;SDS011;4148;47.974;7.824;2022-07-10T08:33:24;4.60;;;3.00;;
8213;SDS011;4148;47.974;7.824;2022-07-10T08:35:52;7.00;;;3.60;;
8213;SDS011;4148;47.974;7.824;2022-07-10T08:38:45;5.57;;;3.00;;
8213;SDS011;4148;47.974;7.824;2022-07-10T08:41:14;5.43;;;3.50;;
8213;SDS011;4148;47.974;7.824;2022-07-10T08:43:44;4.97;;;3.10;;
8213;SDS011;4148;47.974;7.824;2022-07-10T08:46:12;5.17;;;3.10;;
8213;SDS011;4148;47.974;7.824;2022-07-10T08:48:42;3.80;;;3.00;;
8213;SDS011;4148;47.974;7.824;2022-07-10T08:51:12;4.30;;;3.20;;
8213;SDS011;4148;47.974;7.824;2022-07-10T08:53:46;6.67;;;3.17;;
8213;SDS011;4148;47.974;7.824;2022-07-10T08:56:18;7.17;;;3.43;;
8213;SDS011;4148;47.974;7.824;2022-07-10T08:58:45;4.30;;;2.90;;
8213;SDS011;4148;47.974;7.824;2022-07-10T09:01:15;3.40;;;2.80;;
8213;SDS011;4148;47.974;7.824;2022-07-10T09:03:49;5.60;;;2.50;;
8213;SDS011;4148;47.974;7.824;2022-07-10T09:06:17;5.13;;;3.37;;
8213;SDS011;4148;47.974;7.824;2022-07-10T09:08:58;3.90;;;2.53;;
8213;SDS011;4148;47.974;7.824;2022-07-10T09:11:28;4.50;;;3.30;;
8213;SDS011;4148;47.974;7.824;2022-07-10T09:13:57;6.03;;;3.23;;
8213;SDS011;4148;47.974;7.824;2022-07-10T09:16:27;6.23;;;3.30;;
8213;SDS011;4148;47.974;7.824;2022-07-10T09:18:56;5.33;;;3.33;;
8213;SDS011;4148;47.974;7.824;2022-07-10T09:21:24;2.93;;;2.63;;
8213;SDS011;4148;47.974;7.824;2022-07-10T09:23:55;3.47;;;3.17;;
8213;SDS011;4148;47.974;7.824;2022-07-10T09:26:28;12.17;;;3.20;;
8213;SDS011;4148;47.974;7.824;2022-07-10T09:29:04;4.80;;;3.40;;
8213;SDS011;4148;47.974;7.824;2022-07-10T09:34:18;7.87;;;3.17;;
8213;SDS011;4148;47.974;7.824;2022-07-10T09:39:51;5.73;;;3.33;;
8213;SDS011;4148;47.974;7.824;2022-07-10T09:42:28;5.73;;;2.93;;
8213;SDS011;4148;47.974;7.824;2022-07-10T09:45:13;6.00;;;3.37;;
8213;SDS011;4148;47.974;7.824;2022-07-10T09:47:47;5.57;;;2.87;;
8213;SDS011;4148;47.974;7.824;2022-07-10T09:50:24;4.30;;;3.10;;
8213;SDS011;4148;47.974;7.824;2022-07-10T09:52:54;3.80;;;3.13;;
8213;SDS011;4148;47.974;7.824;2022-07-10T09:55:23;4.20;;;3.10;;
8213;SDS011;4148;47.974;7.824;2022-07-10T09:57:55;7.10;;;3.33;;
8213;SDS011;4148;47.974;7.824;2022-07-10T10:00:25;5.47;;;3.60;;
8213;SDS011;4148;47.974;7.824;2022-07-10T10:02:55;4.10;;;2.97;;
8213;SDS011;4148;47.974;7.824;2022-07-10T10:05:34;3.50;;;3.00;;
8213;SDS011;4148;47.974;7.824;2022-07-10T10:08:10;3.43;;;3.10;;
8213;SDS011;4148;47.974;7.824;2022-07-10T10:10:43;4.60;;;2.90;;
8213;SDS011;4148;47.974;7.824;2022-07-10T10:13:16;4.47;;;3.60;;
8213;SDS011;4148;47.974;7.824;2022-07-10T10:15:45;3.50;;;2.90;;
8213;SDS011;4148;47.974;7.824;2022-07-10T10:18:15;6.23;;;3.50;;
8213;SDS011;4148;47.974;7.824;2022-07-10T10:20:45;4.90;;;3.67;;
8213;SDS011;4148;47.974;7.824;2022-07-10T10:23:12;5.87;;;3.53;;
8213;SDS011;4148;47.974;7.824;2022-07-10T10:25:43;3.67;;;3.27;;
8213;SDS011;4148;47.974;7.824;2022-07-10T10:28:12;7.27;;;3.70;;
8213;SDS011;4148;47.974;7.824;2022-07-10T10:30:44;5.33;;;3.00;;
8213;SDS011;4148;47.974;7.824;2022-07-10T10:36:13;3.90;;;3.13;;
8213;SDS011;4148;47.974;7.824;2022-07-10T10:39:03;3.40;;;2.80;;
8213;SDS011;4148;47.974;7.824;2022-07-10T10:41:36;5.37;;;3.40;;
8213;SDS011;4148;47.974;7.824;2022-07-10T10:44:22;4.00;;;3.10;;
8213;SDS011;4148;47.974;7.824;2022-07-10T10:47:03;3.33;;;3.03;;
8213;SDS011;4148;47.974;7.824;2022-07-10T10:49:51;6.03;;;3.30;;
8213;SDS011;4148;47.974;7.824;2022-07-10T10:52:22;22.53;;;5.30;;
8213;SDS011;4148;47.974;7.824;2022-07-10T10:55:06;5.60;;;3.07;;
8213;SDS011;4148;47.974;7.824;2022-07-10T10:57:38;3.60;;;3.10;;
8213;SDS011;4148;47.974;7.824;2022-07-10T11:00:14;7.63;;;3.53;;
8213;SDS011;4148;47.974;7.824;2022-07-10T11:03:17;5.43;;;3.20;;
8213;SDS011;4148;47.974;7.824;2022-07-10T11:05:48;4.03;;;2.90;;
8213;SDS011;4148;47.974;7.824;2022-07-10T11:08:39;7.70;;;3.20;;
8213;SDS011;4148;47.974;7.824;2022-07-10T11:14:09;7.60;;;3.30;;
8213;SDS011;4148;47.974;7.824;2022-07-10T11:16:45;3.17;;;2.87;;
8213;SDS011;4148;47.974;7.824;2022-07-10T11:19:21;4.63;;;3.23;;
8213;SDS011;4148;47.974;7.824;2022-07-10T11:21:52;5.17;;;2.90;;
8213;SDS011;4148;47.974;7.824;2022-07-10T11:24:33;4.27;;;3.40;;
8213;SDS011;4148;47.974;7.824;2022-07-10T11:27:15;3.63;;;3.10;;
8213;SDS011;4148;47.974;7.824;2022-07-10T11:29:56;4.43;;;3.30;;
8213;SDS011;4148;47.974;7.824;2022-07-10T11:32:25;3.67;;;2.80;;
8213;SDS011;4148;47.974;7.824;2022-07-10T11:34:55;7.53;;;3.40;;
8213;SDS011;4148;47.974;7.824;2022-07-10T11:37:23;3.70;;;2.80;;
8213;SDS011;4148;47.974;7.824;2022-07-10T11:40:07;6.37;;;3.87;;
8213;SDS011;4148;47.974;7.824;2022-07-10T11:42:47;3.17;;;2.87;;
8213;SDS011;4148;47.974;7.824;2022-07-10T11:45:23;5.27;;;2.77;;
8213;SDS011;4148;47.974;7.824;2022-07-10T11:47:56;3.77;;;3.07;;
8213;SDS011;4148;47.974;7.824;2022-07-10T11:50:26;4.00;;;3.20;;
8213;SDS011;4148;47.974;7.824;2022-07-10T11:52:54;5.13;;;3.30;;
8213;SDS011;4148;47.974;7.824;2022-07-10T11:55:22;4.50;;;3.07;;
8213;SDS011;4148;47.974;7.824;2022-07-10T11:57:55;5.97;;;3.07;;
8213;SDS011;4148;47.974;7.824;2022-07-10T12:00:24;4.53;;;3.03;;
8213;SDS011;4148;47.974;7.824;2022-07-10T12:02:57;3.60;;;2.63;;
8213;SDS011;4148;47.974;7.824;2022-07-10T12:05:45;3.47;;;2.70;;
8213;SDS011;4148;47.974;7.824;2022-07-10T12:08:14;4.00;;;2.97;;
8213;SDS011;4148;47.974;7.824;2022-07-10T12:10:42;3.87;;;2.87;;
8213;SDS011;4148;47.974;7.824;2022-07-10T12:13:12;3.20;;;2.63;;
8213;SDS011;4148;47.974;7.824;2022-07-10T12:15:42;4.77;;;2.60;;
8213;SDS011;4148;47.974;7.824;2022-07-10T12:18:15;2.40;;;2.10;;
8213;SDS011;4148;47.974;7.824;2022-07-10T12:20:45;4.40;;;2.60;;
8213;SDS011;4148;47.974;7.824;2022-07-10T12:23:14;5.00;;;2.20;;
8213;SDS011;4148;47.974;7.824;2022-07-10T12:25:43;3.83;;;2.23;;
8213;SDS011;4148;47.974;7.824;2022-07-10T12:28:14;2.13;;;1.93;;
8213;SDS011;4148;47.974;7.824;2022-07-10T12:30:43;2.83;;;1.93;;
8213;SDS011;4148;47.974;7.824;2022-07-10T12:33:13;2.67;;;1.50;;
8213;SDS011;4148;47.974;7.824;2022-07-10T12:35:48;2.67;;;2.47;;
8213;SDS011;4148;47.974;7.824;2022-07-10T12:38:18;3.20;;;2.13;;
8213;SDS011;4148;47.974;7.824;2022-07-10T12:40:46;2.47;;;1.73;;
8213;SDS011;4148;47.974;7.824;2022-07-10T12:43:24;5.17;;;2.17;;
8213;SDS011;4148;47.974;7.824;2022-07-10T12:46:09;3.87;;;2.00;;
8213;SDS011;4148;47.974;7.824;2022-07-10T12:48:38;7.00;;;2.67;;
8213;SDS011;4148;47.974;7.824;2022-07-10T12:51:23;4.10;;;2.00;;
8213;SDS011;4148;47.974;7.824;2022-07-10T12:53:52;3.80;;;2.10;;
8213;SDS011;4148;47.974;7.824;2022-07-10T12:56:27;5.70;;;2.10;;
8213;SDS011;4148;47.974;7.824;2022-07-10T12:58:56;3.10;;;2.27;;
8213;SDS011;4148;47.974;7.824;2022-07-10T13:01:25;5.00;;;2.00;;
8213;SDS011;4148;47.974;7.824;2022-07-10T13:03:58;2.97;;;2.00;;
8213;SDS011;4148;47.974;7.824;2022-07-10T13:06:29;2.43;;;1.90;;
8213;SDS011;4148;47.974;7.824;2022-07-10T13:08:58;4.30;;;2.40;;
8213;SDS011;4148;47.974;7.824;2022-07-10T13:11:26;4.80;;;2.47;;
8213;SDS011;4148;47.974;7.824;2022-07-10T13:13:54;3.60;;;2.63;;
8213;SDS011;4148;47.974;7.824;2022-07-10T13:16:22;3.13;;;2.50;;
8213;SDS011;4148;47.974;7.824;2022-07-10T13:18:51;4.77;;;2.50;;
8213;SDS011;4148;47.974;7.824;2022-07-10T13:21:20;3.33;;;2.70;;
8213;SDS011;4148;47.974;7.824;2022-07-10T13:23:49;3.53;;;2.53;;
8213;SDS011;4148;47.974;7.824;2022-07-10T13:26:17;3.97;;;2.40;;
8213;SDS011;4148;47.974;7.824;2022-07-10T13:28:45;7.87;;;2.67;;
8213;SDS011;4148;47.974;7.824;2022-07-10T13:31:13;5.13;;;2.00;;
8213;SDS011;4148;47.974;7.824;2022-07-10T13:33:41;3.03;;;2.20;;
8213;SDS011;4148;47.974;7.824;2022-07-10T13:36:09;3.97;;;2.13;;
8213;SDS011;4148;47.974;7.824;2022-07-10T13:38:37;3.27;;;2.27;;
8213;SDS011;4148;47.974;7.824;2022-07-10T13:41:07;2.47;;;2.00;;
8213;SDS011;4148;47.974;7.824;2022-07-10T13:43:35;2.93;;;1.87;;
8213;SDS011;4148;47.974;7.824;2022-07-10T13:46:03;3.60;;;2.00;;
8213;SDS011;4148;47.974;7.824;2022-07-10T13:48:31;2.80;;;1.63;;
8213;SDS011;4148;47.974;7.824;2022-07-10T13:50:59;4.50;;;1.83;;
8213;SDS011;4148;47.974;7.824;2022-07-10T13:53:27;2.40;;;1.77;;
8213;SDS011;4148;47.974;7.824;2022-07-10T13:55:55;2.13;;;1.93;;
8213;SDS011;4148;47.974;7.824;2022-07-10T13:58:24;3.30;;;2.03;;
8213;SDS011;4148;47.974;7.824;2022-07-10T14:00:52;3.30;;;2.60;;
8213;SDS011;4148;47.974;7.824;2022-07-10T14:03:20;2.90;;;1.87;;
8213;SDS011;4148;47.974;7.824;2022-07-10T14:05:48;3.97;;;1.53;;
8213;SDS011;4148;47.974;7.824;2022-07-10T14:08:16;4.83;;;1.93;;
8213;SDS011;4148;47.974;7.824;2022-07-10T14:10:44;4.60;;;2.20;;
8213;SDS011;4148;47.974;7.824;2022-07-10T14:13:12;2.70;;;1.80;;
8213;SDS011;4148;47.974;7.824;2022-07-10T14:15:41;2.07;;;1.70;;
8213;SDS011;4148;47.974;7.824;2022-07-10T14:18:11;4.70;;;2.20;;
8213;SDS011;4148;47.974;7.824;2022-07-10T14:20:39;2.13;;;1.80;;
8213;SDS011;4148;47.974;7.824;2022-07-10T14:23:40;2.90;;;1.87;;
8213;SDS011;4148;47.974;7.824;2022-07-10T14:26:10;2.40;;;1.40;;
8213;SDS011;4148;47.974;7.824;2022-07-10T14:28:38;3.03;;;1.80;;
8213;SDS011;4148;47.974;7.824;2022-07-10T14:31:07;1.90;;;1.60;;
8213;SDS011;4148;47.974;7.824;2022-07-10T14:33:36;3.60;;;1.77;;
8213;SDS011;4148;47.974;7.824;2022-07-10T14:36:04;2.37;;;1.80;;
8213;SDS011;4148;47.974;7.824;2022-07-10T14:38:32;2.10;;;1.67;;
8213;SDS011;4148;47.974;7.824;2022-07-10T14:41:00;2.47;;;1.80;;
8213;SDS011;4148;47.974;7.824;2022-07-10T14:43:30;1.90;;;1.70;;
8213;SDS011;4148;47.974;7.824;2022-07-10T14:45:59;2.00;;;1.70;;
8213;SDS011;4148;47.974;7.824;2022-07-10T14:48:31;1.87;;;1.50;;
8213;SDS011;4148;47.974;7.824;2022-07-10T14:51:00;2.90;;;1.40;;
8213;SDS011;4148;47.974;7.824;2022-07-10T14:53:29;3.40;;;1.60;;
8213;SDS011;4148;47.974;7.824;2022-07-10T14:56:01;3.77;;;1.57;;
8213;SDS011;4148;47.974;7.824;2022-07-10T14:58:29;1.93;;;1.57;;
8213;SDS011;4148;47.974;7.824;2022-07-10T15:01:10;5.30;;;1.80;;
8213;SDS011;4148;47.974;7.824;2022-07-10T15:03:39;2.40;;;1.63;;
8213;SDS011;4148;47.974;7.824;2022-07-10T15:06:07;3.83;;;1.70;;
8213;SDS011;4148;47.974;7.824;2022-07-10T15:08:36;2.90;;;1.43;;
8213;SDS011;4148;47.974;7.824;2022-07-10T15:11:04;1.87;;;1.43;;
8213;SDS011;4148;47.974;7.824;2022-07-10T15:13:33;3.57;;;1.37;;
8213;SDS011;4148;47.974;7.824;2022-07-10T15:16:01;3.97;;;1.30;;
8213;SDS011;4148;47.974;7.824;2022-07-10T15:18:29;1.60;;;1.20;;
8213;SDS011;4148;47.974;7.824;2022-07-10T15:20:59;4.23;;;1.40;;
8213;SDS011;4148;47.974;7.824;2022-07-10T15:23:27;2.80;;;1.40;;
8213;SDS011;4148;47.974;7.824;2022-07-10T15:25:55;2.63;;;1.40;;
8213;SDS011;4148;47.974;7.824;2022-07-10T15:28:24;3.30;;;1.50;;
8213;SDS011;4148;47.974;7.824;2022-07-10T15:30:52;2.43;;;1.17;;
8213;SDS011;4148;47.974;7.824;2022-07-10T15:33:20;1.43;;;1.17;;
8213;SDS011;4148;47.974;7.824;2022-07-10T15:35:48;2.30;;;1.10;;
8213;SDS011;4148;47.974;7.824;2022-07-10T15:38:17;1.80;;;1.17;;
8213;SDS011;4148;47.974;7.824;2022-07-10T15:40:45;1.60;;;1.10;;
8213;SDS011;4148;47.974;7.824;2022-07-10T15:43:13;1.93;;;1.10;;
8213;SDS011;4148;47.974;7.824;2022-07-10T15:45:41;4.23;;;1.27;;